createdAt,value
2023-02-18T00:00:19.433Z,1.80
2023-02-18T00:06:32.842Z,1.30
2023-02-18T00:12:34.822Z,1.88
2023-02-18T00:18:37.329Z,1.70
2023-02-18T00:24:39.179Z,2.10
2023-02-18T00:30:44.031Z,1.35
2023-02-18T00:36:45.745Z,2.20
2023-02-18T00:42:47.564Z,2.50
2023-02-18T00:48:49.340Z,3.67
2023-02-18T00:54:51.083Z,4.70
2023-02-18T01:00:53.054Z,5.32
2023-02-18T01:06:54.821Z,6.38
2023-02-18T01:12:56.690Z,7.57
2023-02-18T01:18:58.718Z,8.32
2023-02-18T01:25:00.788Z,10.50
2023-02-18T01:31:07.634Z,12.85
2023-02-18T01:37:09.507Z,12.43
2023-02-18T01:43:13.217Z,12.77
2023-02-18T01:49:21.055Z,15.40
2023-02-18T01:55:22.982Z,18.08
2023-02-18T02:01:26.752Z,18.38
2023-02-18T02:07:29.635Z,17.43
2023-02-18T02:14:02.048Z,18.23
2023-02-18T02:20:19.141Z,19.52
2023-02-18T02:26:52.177Z,17.70
2023-02-18T02:33:12.019Z,20.45
2023-02-18T02:39:28.870Z,20.63
2023-02-18T02:45:45.990Z,20.15
2023-02-18T02:52:10.376Z,21.30
2023-02-18T02:58:16.858Z,21.50
2023-02-18T03:04:47.631Z,21.30
2023-02-18T03:11:01.544Z,21.90
2023-02-18T03:17:11.880Z,23.43
2023-02-18T03:23:20.193Z,22.92
2023-02-18T03:29:22.892Z,24.23
2023-02-18T03:35:25.787Z,23.95
2023-02-18T03:41:27.750Z,25.48
2023-02-18T03:47:29.696Z,24.45
2023-02-18T03:53:31.499Z,24.63
2023-02-18T03:59:33.716Z,23.83
2023-02-18T04:05:36.627Z,23.17
2023-02-18T04:11:39.852Z,23.80
2023-02-18T04:17:41.816Z,19.08
2023-02-18T04:23:43.593Z,15.80
2023-02-18T04:29:45.461Z,14.00
2023-02-18T04:35:49.419Z,15.18
2023-02-18T04:41:51.227Z,16.65
2023-02-18T04:47:53.617Z,18.10
2023-02-18T04:53:55.417Z,17.52
2023-02-18T04:59:57.275Z,13.75
2023-02-18T05:05:59.340Z,14.23
2023-02-18T05:12:01.111Z,13.90
2023-02-18T05:18:02.891Z,13.25
2023-02-18T05:24:05.053Z,12.77
2023-02-18T05:30:07.654Z,11.43
2023-02-18T05:36:09.943Z,10.13
2023-02-18T05:42:11.833Z,8.82
2023-02-18T05:48:13.675Z,9.48
2023-02-18T05:54:15.614Z,10.55
2023-02-18T06:00:17.826Z,11.10
2023-02-18T06:06:19.668Z,11.95
2023-02-18T06:12:21.567Z,13.00
2023-02-18T06:18:23.372Z,14.07
2023-02-18T06:24:25.130Z,14.98
2023-02-18T06:30:26.994Z,17.08
2023-02-18T06:36:28.858Z,16.55
2023-02-18T06:42:30.732Z,15.50
2023-02-18T06:48:32.622Z,13.70
2023-02-18T06:54:34.754Z,13.70
2023-02-18T07:00:39.831Z,12.70
2023-02-18T07:06:41.725Z,11.90
2023-02-18T07:12:43.562Z,9.32
2023-02-18T07:18:46.702Z,7.90
2023-02-18T07:24:54.930Z,6.68
2023-02-18T07:30:56.728Z,5.50
2023-02-18T07:36:58.434Z,5.80
2023-02-18T07:43:00.236Z,5.70
2023-02-18T07:49:02.029Z,5.03
2023-02-18T07:55:04.352Z,4.88
2023-02-18T08:01:11.952Z,4.78
2023-02-18T08:07:19.274Z,4.60
2023-02-18T08:13:21.074Z,4.47
2023-02-18T08:19:23.252Z,4.18
2023-02-18T08:25:29.627Z,3.60
2023-02-18T08:31:32.289Z,3.13
2023-02-18T08:37:53.021Z,2.70
2023-02-18T08:43:55.964Z,2.13
2023-02-18T08:49:57.872Z,1.80
2023-02-18T08:55:59.682Z,1.67
2023-02-18T09:02:01.535Z,1.90
2023-02-18T09:08:03.380Z,1.83
2023-02-18T09:14:05.291Z,1.75
2023-02-18T09:20:10.750Z,1.40
2023-02-18T09:26:15.054Z,1.20
2023-02-18T09:32:32.589Z,1.25
2023-02-18T09:38:37.080Z,1.20
2023-02-18T09:44:50.932Z,1.10
2023-02-18T09:50:53.548Z,0.90
2023-02-18T09:56:55.697Z,1.20
2023-02-18T10:03:05.173Z,1.33
2023-02-18T10:09:21.713Z,1.30
2023-02-18T10:15:29.994Z,1.13
2023-02-18T10:21:36.149Z,1.23
2023-02-18T10:27:39.337Z,1.25
2023-02-18T10:33:56.700Z,1.30
2023-02-18T10:40:13.905Z,1.20
2023-02-18T10:46:31.834Z,1.48
2023-02-18T10:52:42.361Z,1.35
2023-02-18T10:58:47.579Z,1.63
2023-02-18T11:04:50.311Z,1.70
2023-02-18T11:10:52.893Z,1.75
2023-02-18T11:16:56.523Z,1.23
2023-02-18T11:23:13.321Z,1.57
2023-02-18T11:29:24.278Z,1.27
2023-02-18T11:35:30.588Z,1.20
2023-02-18T11:41:38.652Z,1.05
2023-02-18T11:47:40.444Z,1.30
2023-02-18T11:53:53.951Z,1.40
2023-02-18T11:59:59.442Z,0.90
2023-02-18T12:06:12.587Z,1.30
2023-02-18T12:12:25.764Z,1.17
2023-02-18T12:18:43.254Z,1.50
2023-02-18T12:24:59.088Z,1.02
2023-02-18T12:31:26.219Z,1.00
2023-02-18T12:37:46.188Z,1.40
2023-02-18T12:44:34.333Z,1.67
2023-02-18T12:50:44.052Z,1.75
2023-02-18T12:56:57.360Z,1.58
2023-02-18T13:03:28.058Z,1.65
2023-02-18T13:10:09.098Z,2.17
2023-02-18T13:16:15.147Z,2.35
2023-02-18T13:22:19.986Z,2.60
2023-02-18T13:28:32.138Z,2.90
2023-02-18T13:34:50.097Z,2.80
2023-02-18T13:40:52.512Z,2.28
2023-02-18T13:46:59.186Z,3.20
2023-02-18T13:53:09.780Z,3.03
2023-02-18T13:59:16.156Z,3.25
2023-02-18T14:05:23.611Z,3.53
2023-02-18T14:11:36.988Z,3.00
2023-02-18T14:17:42.606Z,3.13
2023-02-18T14:23:57.492Z,3.15
2023-02-18T14:30:07.378Z,3.25
2023-02-18T14:36:36.797Z,3.90
2023-02-18T14:42:53.569Z,4.22
2023-02-18T14:49:26.089Z,3.92
2023-02-18T14:55:32.426Z,3.55
2023-02-18T15:01:36.692Z,3.42
2023-02-18T15:07:38.754Z,4.45
2023-02-18T15:13:46.196Z,3.65
2023-02-18T15:19:53.982Z,3.50
2023-02-18T15:25:56.324Z,3.35
2023-02-18T15:31:59.099Z,2.85
2023-02-18T15:38:01.781Z,3.53
2023-02-18T15:44:06.549Z,2.95
2023-02-18T15:50:19.377Z,3.90
2023-02-18T15:56:27.305Z,3.30
2023-02-18T16:02:30.646Z,3.40
2023-02-18T16:08:32.463Z,3.63
2023-02-18T16:14:49.186Z,4.38
2023-02-18T16:21:01.392Z,3.45
2023-02-18T16:27:14.747Z,3.15
2023-02-18T16:33:16.543Z,3.05
2023-02-18T16:39:18.398Z,3.53
2023-02-18T16:45:21.878Z,3.67
2023-02-18T16:51:33.100Z,3.53
2023-02-18T16:57:35.122Z,3.60
2023-02-18T17:03:37.191Z,3.42
2023-02-18T17:09:39.230Z,3.00
2023-02-18T17:15:42.799Z,3.58
2023-02-18T17:21:47.613Z,3.33
2023-02-18T17:27:50.511Z,3.63
2023-02-18T17:34:00.802Z,3.70
2023-02-18T17:40:02.640Z,4.05
2023-02-18T17:46:05.081Z,4.32
2023-02-18T17:52:06.970Z,3.83
2023-02-18T17:58:09.817Z,4.57
2023-02-18T18:04:14.496Z,3.97
2023-02-18T18:10:17.260Z,4.53
2023-02-18T18:16:19.692Z,5.00
2023-02-18T18:22:21.583Z,4.68
2023-02-18T18:28:24.999Z,5.43
2023-02-18T18:34:26.821Z,4.90
2023-02-18T18:40:31.745Z,5.30
2023-02-18T18:46:33.840Z,4.65
2023-02-18T18:52:35.648Z,3.72
2023-02-18T18:58:37.424Z,4.03
2023-02-18T19:04:39.300Z,3.33
2023-02-18T19:10:53.431Z,3.40
2023-02-18T19:16:56.152Z,4.38
2023-02-18T19:22:58.329Z,4.30
2023-02-18T19:29:00.139Z,5.10
2023-02-18T19:35:02.034Z,5.40
2023-02-18T19:41:14.606Z,3.67
2023-02-18T19:47:16.455Z,4.35
2023-02-18T19:53:18.163Z,4.15
2023-02-18T19:59:19.911Z,4.00
2023-02-18T20:05:21.852Z,3.85
2023-02-18T20:11:23.637Z,4.60
2023-02-18T20:17:25.735Z,5.13
2023-02-18T20:23:27.547Z,6.53
2023-02-18T20:29:29.949Z,6.40
2023-02-18T20:35:31.732Z,6.57
2023-02-18T20:41:33.574Z,7.03
2023-02-18T20:47:35.472Z,7.22
2023-02-18T20:53:38.599Z,8.30
2023-02-18T20:59:40.501Z,8.10
2023-02-18T21:05:42.270Z,8.73
2023-02-18T21:11:44.922Z,8.70
2023-02-18T21:17:46.692Z,9.30
2023-02-18T21:23:48.429Z,9.18
2023-02-18T21:29:50.344Z,10.55
2023-02-18T21:35:52.596Z,10.93
2023-02-18T21:41:54.337Z,11.25
2023-02-18T21:47:58.024Z,10.82
2023-02-18T21:53:59.735Z,10.43
2023-02-18T22:00:08.419Z,7.80
2023-02-18T22:06:16.733Z,7.25
2023-02-18T22:12:18.520Z,6.70
2023-02-18T22:18:20.252Z,7.40
2023-02-18T22:24:22.163Z,7.93
2023-02-18T22:30:24.066Z,8.40
2023-02-18T22:36:27.828Z,10.85
2023-02-18T22:42:29.659Z,11.37
2023-02-18T22:48:33.336Z,13.77
2023-02-18T22:54:35.151Z,14.33
2023-02-18T23:00:37.027Z,14.20
2023-02-18T23:06:41.269Z,13.60
2023-02-18T23:12:43.013Z,12.68
2023-02-18T23:18:44.803Z,13.63
2023-02-18T23:24:47.399Z,13.35
2023-02-18T23:30:49.193Z,11.75
2023-02-18T23:36:50.997Z,12.15
2023-02-18T23:42:56.493Z,10.73
2023-02-18T23:49:01.962Z,9.57
2023-02-18T23:55:03.827Z,10.10
